CDT,Max TemperatureF,Mean TemperatureF,Min TemperatureF,Max Dew PointF,MeanDew PointF,Min DewpointF,Max Humidity, Mean Humidity, Min Humidity, Max Sea Level PressureIn, Mean Sea Level PressureIn, Min Sea Level PressureIn, Max VisibilityMiles, Mean VisibilityMiles, Min VisibilityMiles, Max Wind SpeedMPH, Mean Wind SpeedMPH, Max Gust SpeedMPH,PrecipitationIn, CloudCover, Events, WindDirDegrees
2013-3-1,24,16,8,18,14,9,100,90,74,30.39,30.35,30.25,10,10,5,10,6,,0.00,3,,15
2013-3-2,24,12,0,19,12,-2,100,90,69,30.36,30.24,30.09,10,8,0,13,5,,0.00,4,Fog-Snow,168
2013-3-3,30,22,15,27,20,14,100,86,69,30.09,29.95,29.86,10,9,2,25,14,30,0.00,3,Snow,161
2013-3-4,26,25,24,27,25,21,100,96,86,29.95,29.87,29.81,10,4,1,24,18,29,0.00,8,Snow,160
2013-3-5,26,22,17,27,22,16,100,95,86,30.36,30.14,29.92,10,6,1,23,11,30,0.02,7,Snow,7
2013-3-6,21,19,17,18,17,16,100,90,80,30.43,30.38,30.32,10,10,4,10,7,,0.00,8,Snow,336
2013-3-7,24,20,15,21,17,16,100,91,80,30.33,30.26,30.17,10,10,7,23,12,26,0.00,3,,165
2013-3-8,32,22,12,32,20,10,100,92,80,30.25,30.17,30.00,7,4,2,14,8,,0.16,2,Rain,143
2013-3-9,33,30,26,34,32,27,100,100,100,29.98,29.81,29.68,7,3,0,22,10,29,0.99,8,Rain-Snow,103
2013-3-10,26,20,15,27,21,14,100,92,86,30.07,30.00,29.87,10,9,5,25,20,33,0.00,8,,12
2013-3-11,26,16,6,21,13,3,93,83,63,30.00,29.89,29.83,10,10,10,15,11,18,0.00,6,,342
2013-3-12,28,22,15,27,19,14,100,86,74,30.28,30.06,29.87,10,8,2,26,13,38,0.00,7,Snow,354
2013-3-13,28,18,8,25,14,7,93,84,68,30.40,30.31,30.14,10,10,10,17,9,18,0.00,2,,277
2013-3-14,33,27,21,28,26,21,100,89,80,30.12,30.07,30.00,10,8,4,16,7,21,0.00,2,Snow,158
2013-3-15,33,30,26,32,29,27,100,97,87,30.02,29.93,29.81,7,4,2,13,7,16,0.00,7,Snow,54
2013-3-16,26,16,5,27,10,1,100,89,79,30.28,30.17,29.96,10,9,2,16,13,20,0.00,4,Snow,8
2013-3-17,28,16,3,28,11,0,100,84,74,30.28,30.03,29.65,10,9,1,30,11,37,0.00,6,Snow,155
2013-3-18,33,20,8,34,14,3,100,82,68,29.97,29.74,29.57,10,8,1,29,20,39,0.04,7,Snow,316
2013-3-19,15,9,3,7,3,-2,85,74,62,30.31,30.15,29.97,10,10,10,21,14,31,0.00,2,,347
2013-3-20,17,10,3,5,2,-2,85,73,58,30.34,30.27,30.17,10,10,10,22,13,25,0.00,0,,350
2013-3-21,19,10,0,12,5,-2,92,82,68,30.16,30.10,30.06,10,10,10,7,3,,0.00,0,,42
2013-3-22,24,12,1,18,10,0,100,82,64,30.12,30.08,30.06,10,10,10,7,3,,0.00,1,,13
2013-3-23,26,19,12,19,15,10,93,81,64,30.19,30.16,30.10,10,10,10,10,7,,0.00,3,,349
2013-3-24,30,22,15,28,20,12,100,91,80,30.16,30.10,30.05,10,8,1,21,10,26,0.00,6,Snow,360
2013-3-25,28,24,17,23,21,16,93,86,74,30.32,30.22,30.12,10,10,10,22,14,26,0.00,4,Snow,4
2013-3-26,26,19,12,21,16,10,100,87,74,30.35,30.31,30.28,10,10,10,10,7,,0.00,0,,356
2013-3-27,33,22,10,30,22,10,100,92,75,30.32,30.30,30.27,10,9,2,13,4,16,0.00,2,,148
2013-3-28,37,32,26,36,31,23,100,90,81,30.30,30.25,30.20,10,10,7,14,9,17,0.00,4,,160
2013-3-29,50,40,30,43,37,30,100,92,76,30.23,30.13,29.94,10,6,2,12,8,,0.00,3,Thunderstorm,169
2013-3-30,44,38,32,41,36,32,100,93,81,29.96,29.94,29.89,10,5,0,15,8,21,0.00,4,Fog-Rain-Thunderstorm,334
2013-3-31,33,27,21,34,25,18,100,83,69,30.20,30.00,29.88,10,9,2,26,14,37,0.00,4,,353